Time;durP1;ratioP1;P1;durP2;ratioP2;P2;SDS_P1;SDS_P2;PMS_P1;PMS_P2;Temp;Humidity;BMP_temperature;BMP_pressure;BME280_temperature;BME280_humidity;BME280_pressure;Samples;Min_cycle;Max_cycle;Signal;HPM_P1;HPM_P2
2024/01/06 00:01:49;;;;;;;;;;;;;;;;;;5108419;28;20272;-66
2024/01/06 00:04:14;;;;;;;;;;;;;;;;;;5105478;28;19931;-66
2024/01/06 00:06:40;;;;;;;;;;;;;;;;;;5104985;28;19920;-66
2024/01/06 00:09:07;;;;;;;;;;;;;;;;;;5106171;28;19920;-66
2024/01/06 00:11:33;;;;;;;;;;;;;;;;;;5103568;28;20060;-66
2024/01/06 00:13:59;;;;;;;;;;;;;;;;;;5100638;28;19928;-66
2024/01/06 00:16:25;;;;;;;;;;;;;;;;;;5082213;28;19927;-66
2024/01/06 00:18:50;;;;;;;;;;;;;;;;;;5092780;28;20418;-66
2024/01/06 00:21:16;;;;;;;;;;;;;;;;;;5106326;28;19954;-66
2024/01/06 00:23:42;;;;;;;;;;;;;;;;;;5109467;28;19919;-67
2024/01/06 00:26:08;;;;;;;;;;;;;;;;;;5110692;28;19919;-67
2024/01/06 00:28:35;;;;;;;;;;;;;;;;;;5111307;28;19919;-67
2024/01/06 00:31:00;;;;;;;;;;;;;;;;;;5108134;28;19963;-67
2024/01/06 00:33:26;;;;;;;;;;;;;;;;;;5091371;28;19955;-67
2024/01/06 00:35:52;;;;;;;;;;;;;;;;;;5099273;28;20428;-67
2024/01/06 00:38:19;;;;;;;;;;;;;;;;;;5108185;28;19923;-67
2024/01/06 00:40:45;;;;;;;;;;;;;;;;;;5107957;28;19924;-67
2024/01/06 00:43:11;;;;;;;;;;;;;;;;;;5104824;28;19935;-67
2024/01/06 00:45:37;;;;;;;;;;;;;;;;;;5109568;28;19924;-67
2024/01/06 00:48:03;;;;;;;;;;;;;;;;;;5109720;28;19920;-67
2024/01/06 00:50:29;;;;;;;;;;;;;;;;;;5109640;28;19931;-67
2024/01/06 00:52:55;;;;;;;;;;;;;;;;;;5105917;28;20385;-67
2024/01/06 00:55:21;;;;;;;;;;;;;;;;;;5110526;28;20014;-67
2024/01/06 00:57:47;;;;;;;;;;;;;;;;;;5109662;28;20015;-67
2024/01/06 01:00:13;;;;;;;;;;;;;;;;;;5108381;28;19920;-67
2024/01/06 01:02:39;;;;;;;;;;;;;;;;;;5110475;28;19930;-67
2024/01/06 01:05:07;;;;;;;;;;;;;;;;;;5110078;28;19923;-67
2024/01/06 01:07:33;;;;;;;;;;;;;;;;;;5107510;28;19924;-67
2024/01/06 01:09:59;;;;;;;;;;;;;;;;;;5107134;28;19944;-67
2024/01/06 01:12:25;;;;;;;;;;;;;;;;;;5110788;28;19923;-68
2024/01/06 01:14:51;;;;;;;;;;;;;;;;;;5108500;28;20018;-67
2024/01/06 01:17:16;;;;;;;;;;;;;;;;;;5095128;28;20015;-67
2024/01/06 01:19:42;;;;;;;;;;;;;;;;;;5108557;28;19920;-67
2024/01/06 01:22:08;;;;;;;;;;;;;;;;;;5101972;28;19924;-67
2024/01/06 01:24:34;;;;;;;;;;;;;;;;;;5109696;28;19959;-67
2024/01/06 01:27:00;;;;;;;;;;;;;;;;;;5108450;28;20329;-67
2024/01/06 01:29:26;;;;;;;;;;;;;;;;;;5109412;28;19967;-66
2024/01/06 01:31:52;;;;;;;;;;;;;;;;;;5106016;28;19920;-68
2024/01/06 01:34:18;;;;;;;;;;;;;;;;;;5108486;28;20515;-67
2024/01/06 01:36:44;;;;;;;;;;;;;;;;;;5108344;28;19924;-67
2024/01/06 01:39:10;;;;;;;;;;;;;;;;;;5107019;28;19920;-67
2024/01/06 01:41:36;;;;;;;;;;;;;;;;;;5112500;28;19927;-66
2024/01/06 01:44:02;;;;;;;;;;;;;;;;;;5111735;28;19950;-66
2024/01/06 01:46:28;;;;;;;;;;;;;;;;;;5107028;28;19926;-66
2024/01/06 01:48:55;;;;;;;;;;;;;;;;;;5100951;28;20373;-66
2024/01/06 01:51:21;;;;;;;;;;;;;;;;;;5111794;28;19931;-67
2024/01/06 01:53:47;;;;;;;;;;;;;;;;;;5108208;28;19919;-67
2024/01/06 01:56:13;;;;;;;;;;;;;;;;;;5114446;28;19926;-67
2024/01/06 01:58:39;;;;;;;;;;;;;;;;;;5111205;28;20529;-67
2024/01/06 02:01:05;;;;;;;;;;;;;;;;;;5113528;28;19923;-67
2024/01/06 02:03:31;;;;;;;;;;;;;;;;;;5110500;28;19920;-67
2024/01/06 02:05:57;;;;;;;;;;;;;;;;;;5111839;28;19926;-67
2024/01/06 02:08:23;;;;;;;;;;;;;;;;;;5108844;28;20582;-67
2024/01/06 02:10:48;;;;;;;;;;;;;;;;;;5111655;28;20015;-67
2024/01/06 02:13:14;;;;;;;;;;;;;;;;;;5107382;28;19934;-67
2024/01/06 02:15:40;;;;;;;;;;;;;;;;;;5111913;28;20335;-67
2024/01/06 02:18:06;;;;;;;;;;;;;;;;;;5111696;28;19923;-67
2024/01/06 02:20:32;;;;;;;;;;;;;;;;;;5114151;28;19919;-65
2024/01/06 02:23:00;;;;;;;;;;;;;;;;;;5113898;28;19943;-67
2024/01/06 02:25:26;;;;;;;;;;;;;;;;;;5110949;28;19976;-67
2024/01/06 02:27:52;;;;;;;;;;;;;;;;;;5111355;28;19920;-67
2024/01/06 02:30:18;;;;;;;;;;;;;;;;;;5111208;28;20274;-68
2024/01/06 02:32:44;;;;;;;;;;;;;;;;;;5109890;28;19930;-67
2024/01/06 02:35:09;;;;;;;;;;;;;;;;;;5111140;28;20369;-67
2024/01/06 02:37:35;;;;;;;;;;;;;;;;;;5111292;28;19950;-67
2024/01/06 02:40:01;;;;;;;;;;;;;;;;;;5107789;28;20692;-67
2024/01/06 02:42:27;;;;;;;;;;;;;;;;;;5111882;28;19967;-67
2024/01/06 02:44:53;;;;;;;;;;;;;;;;;;5111943;28;19955;-67
2024/01/06 02:47:19;;;;;;;;;;;;;;;;;;5106785;28;19974;-67
2024/01/06 02:49:45;;;;;;;;;;;;;;;;;;5107160;28;20247;-67
2024/01/06 02:52:11;;;;;;;;;;;;;;;;;;5109256;28;20376;-67
2024/01/06 02:54:37;;;;;;;;;;;;;;;;;;5105461;28;19931;-66
2024/01/06 02:57:03;;;;;;;;;;;;;;;;;;5106609;28;20396;-67
2024/01/06 02:59:29;;;;;;;;;;;;;;;;;;5105600;28;19931;-67
2024/01/06 03:01:55;;;;;;;;;;;;;;;;;;5110254;28;19927;-67
2024/01/06 03:04:21;;;;;;;;;;;;;;;;;;5108503;28;20422;-67
2024/01/06 03:06:52;;;;;;;;;;;;;;;;;;5112231;28;19920;-67
2024/01/06 03:09:19;;;;;;;;;;;;;;;;;;5111006;28;19920;-67
2024/01/06 03:11:45;;;;;;;;;;;;;;;;;;5104817;28;19928;-67
2024/01/06 03:14:11;;;;;;;;;;;;;;;;;;5096837;28;19934;-67
2024/01/06 03:16:37;;;;;;;;;;;;;;;;;;5110221;28;19927;-67
2024/01/06 03:19:03;;;;;;;;;;;;;;;;;;5110829;28;19996;-67
2024/01/06 03:21:29;;;;;;;;;;;;;;;;;;5110949;28;20372;-67
2024/01/06 03:23:55;;;;;;;;;;;;;;;;;;5099481;28;20171;-66
2024/01/06 03:26:21;;;;;;;;;;;;;;;;;;5105709;28;19968;-66
2024/01/06 03:28:47;;;;;;;;;;;;;;;;;;5111317;28;19923;-67
2024/01/06 03:31:13;;;;;;;;;;;;;;;;;;5109883;28;20365;-67
2024/01/06 03:33:38;;;;;;;;;;;;;;;;;;5096661;28;19920;-67
2024/01/06 03:36:05;;;;;;;;;;;;;;;;;;5108918;28;19927;-67
2024/01/06 03:38:31;;;;;;;;;;;;;;;;;;5112694;28;19920;-67
2024/01/06 03:40:57;;;;;;;;;;;;;;;;;;5105198;28;19919;-67
2024/01/06 03:43:23;;;;;;;;;;;;;;;;;;5112997;27;20483;-67
2024/01/06 03:45:49;;;;;;;;;;;;;;;;;;5110689;28;19920;-67
2024/01/06 03:48:15;;;;;;;;;;;;;;;;;;5112650;28;20391;-67
2024/01/06 03:50:41;;;;;;;;;;;;;;;;;;5105619;28;19926;-67
2024/01/06 03:53:07;;;;;;;;;;;;;;;;;;5104427;28;19931;-67
2024/01/06 03:55:33;;;;;;;;;;;;;;;;;;5109219;28;19928;-67
2024/01/06 03:57:58;;;;;;;;;;;;;;;;;;5102650;28;19920;-67
2024/01/06 04:00:25;;;;;;;;;;;;;;;;;;5109578;28;19923;-67
2024/01/06 04:02:51;;;;;;;;;;;;;;;;;;5106639;28;19981;-67
2024/01/06 04:05:16;;;;;;;;;;;;;;;;;;5108972;28;19919;-67
2024/01/06 04:07:42;;;;;;;;;;;;;;;;;;5110685;28;20001;-67
2024/01/06 04:10:08;;;;;;;;;;;;;;;;;;5111369;28;20638;-67
2024/01/06 04:12:34;;;;;;;;;;;;;;;;;;5107348;28;19928;-67
2024/01/06 04:15:00;;;;;;;;;;;;;;;;;;5107607;28;19931;-67
2024/01/06 04:17:26;;;;;;;;;;;;;;;;;;5096484;28;19924;-67
2024/01/06 04:19:52;;;;;;;;;;;;;;;;;;5110200;28;19923;-67
2024/01/06 04:22:18;;;;;;;;;;;;;;;;;;5108281;28;19942;-67
2024/01/06 04:24:44;;;;;;;;;;;;;;;;;;5109728;28;19919;-67
2024/01/06 04:27:10;;;;;;;;;;;;;;;;;;5080160;28;19920;-67
2024/01/06 04:29:36;;;;;;;;;;;;;;;;;;5110764;28;20073;-67
2024/01/06 04:32:02;;;;;;;;;;;;;;;;;;5110666;28;20068;-67
2024/01/06 04:34:28;;;;;;;;;;;;;;;;;;5109337;28;19949;-67
2024/01/06 04:36:54;;;;;;;;;;;;;;;;;;5107137;28;20358;-67
2024/01/06 04:39:20;;;;;;;;;;;;;;;;;;5111298;28;19931;-67
2024/01/06 04:41:46;;;;;;;;;;;;;;;;;;5108631;28;19930;-67
2024/01/06 04:44:11;;;;;;;;;;;;;;;;;;5105378;28;19920;-68
2024/01/06 04:46:40;;;;;;;;;;;;;;;;;;5110875;28;19920;-67
2024/01/06 04:49:06;;;;;;;;;;;;;;;;;;5109431;28;19930;-67
2024/01/06 04:51:32;;;;;;;;;;;;;;;;;;5107324;28;19942;-67
2024/01/06 04:53:58;;;;;;;;;;;;;;;;;;5107638;28;20353;-67
2024/01/06 04:56:24;;;;;;;;;;;;;;;;;;5101407;28;20011;-68
2024/01/06 04:58:50;;;;;;;;;;;;;;;;;;5099454;28;19923;-67
2024/01/06 05:01:16;;;;;;;;;;;;;;;;;;5109198;28;20015;-67
2024/01/06 05:03:42;;;;;;;;;;;;;;;;;;5111491;28;20002;-67
2024/01/06 05:06:08;;;;;;;;;;;;;;;;;;5102931;28;19927;-67
2024/01/06 05:08:38;;;;;;;;;;;;;;;;;;5102383;28;19931;-67
2024/01/06 05:11:04;;;;;;;;;;;;;;;;;;5104212;28;19948;-67
2024/01/06 05:13:30;;;;;;;;;;;;;;;;;;5099987;28;20597;-67
2024/01/06 05:15:56;;;;;;;;;;;;;;;;;;5099806;28;19932;-67
2024/01/06 05:18:22;;;;;;;;;;;;;;;;;;5109656;28;19927;-67
2024/01/06 05:20:48;;;;;;;;;;;;;;;;;;5105378;28;19927;-67
2024/01/06 05:23:13;;;;;;;;;;;;;;;;;;5103960;28;19930;-67
2024/01/06 05:25:39;;;;;;;;;;;;;;;;;;5104031;28;19962;-67
2024/01/06 05:28:05;;;;;;;;;;;;;;;;;;5106374;28;20375;-67
2024/01/06 05:30:31;;;;;;;;;;;;;;;;;;5104117;28;19927;-67
2024/01/06 05:32:57;;;;;;;;;;;;;;;;;;5106740;28;19930;-67
2024/01/06 05:35:23;;;;;;;;;;;;;;;;;;5100989;28;19959;-67
2024/01/06 05:37:49;;;;;;;;;;;;;;;;;;5104267;28;20296;-67
2024/01/06 05:40:15;;;;;;;;;;;;;;;;;;5104048;28;19926;-67
2024/01/06 05:42:41;;;;;;;;;;;;;;;;;;5106238;28;19930;-67
2024/01/06 05:45:09;;;;;;;;;;;;;;;;;;5104611;28;20078;-67
2024/01/06 05:47:35;;;;;;;;;;;;;;;;;;5109185;28;19924;-67
2024/01/06 05:50:01;;;;;;;;;;;;;;;;;;5107713;28;19965;-67
2024/01/06 05:52:27;;;;;;;;;;;;;;;;;;5106742;28;19923;-67
2024/01/06 05:54:53;;;;;;;;;;;;;;;;;;5105345;28;19927;-67
2024/01/06 05:57:18;;;;;;;;;;;;;;;;;;5102362;28;20048;-67
2024/01/06 05:59:44;;;;;;;;;;;;;;;;;;5099637;28;20365;-67
2024/01/06 06:02:10;;;;;;;;;;;;;;;;;;5101914;28;20350;-67
2024/01/06 06:04:36;;;;;;;;;;;;;;;;;;5111585;28;20479;-67
2024/01/06 06:07:02;;;;;;;;;;;;;;;;;;5113475;28;19924;-67
2024/01/06 06:09:29;;;;;;;;;;;;;;;;;;5110241;28;20014;-67
2024/01/06 06:11:54;;;;;;;;;;;;;;;;;;5112027;28;19997;-68
2024/01/06 06:14:21;;;;;;;;;;;;;;;;;;5112720;28;19928;-67
2024/01/06 06:16:47;;;;;;;;;;;;;;;;;;5105390;28;19977;-67
2024/01/06 06:19:13;;;;;;;;;;;;;;;;;;5112656;27;19923;-67
2024/01/06 06:21:39;;;;;;;;;;;;;;;;;;5110971;28;20308;-67
2024/01/06 06:24:05;;;;;;;;;;;;;;;;;;5105586;28;19931;-67
2024/01/06 06:26:32;;;;;;;;;;;;;;;;;;5110112;28;19919;-68
2024/01/06 06:28:58;;;;;;;;;;;;;;;;;;5108953;28;19920;-67
2024/01/06 06:31:24;;;;;;;;;;;;;;;;;;5112002;28;19989;-67
2024/01/06 06:33:50;;;;;;;;;;;;;;;;;;5112542;28;20707;-67
2024/01/06 06:36:16;;;;;;;;;;;;;;;;;;5098400;28;19928;-66
2024/01/06 06:38:42;;;;;;;;;;;;;;;;;;5100755;28;19920;-67
2024/01/06 06:41:07;;;;;;;;;;;;;;;;;;5107123;28;19964;-67
2024/01/06 06:43:33;;;;;;;;;;;;;;;;;;5109597;28;19923;-67
2024/01/06 06:45:59;;;;;;;;;;;;;;;;;;5111318;28;20379;-66
2024/01/06 06:48:26;;;;;;;;;;;;;;;;;;5109756;28;20423;-67
2024/01/06 06:50:52;;;;;;;;;;;;;;;;;;5112280;28;19928;-66
2024/01/06 06:53:18;;;;;;;;;;;;;;;;;;5104047;28;19932;-66
2024/01/06 06:55:44;;;;;;;;;;;;;;;;;;5095986;28;19924;-66
2024/01/06 06:58:10;;;;;;;;;;;;;;;;;;5107156;28;19958;-66
2024/01/06 07:00:36;;;;;;;;;;;;;;;;;;5076292;28;20044;-67
2024/01/06 07:03:02;;;;;;;;;;;;;;;;;;5110657;28;19920;-68
2024/01/06 07:05:28;;;;;;;;;;;;;;;;;;5112278;28;20007;-66
2024/01/06 07:07:54;;;;;;;;;;;;;;;;;;5112387;28;20416;-66
2024/01/06 07:10:20;;;;;;;;;;;;;;;;;;5110914;28;20072;-66
2024/01/06 07:12:46;;;;;;;;;;;;;;;;;;5098364;28;20424;-66
2024/01/06 07:15:12;;;;;;;;;;;;;;;;;;5109268;27;20018;-65
2024/01/06 07:17:38;;;;;;;;;;;;;;;;;;5109533;28;20013;-66
2024/01/06 07:20:04;;;;;;;;;;;;;;;;;;5113044;28;20014;-67
2024/01/06 07:22:30;;;;;;;;;;;;;;;;;;5109869;28;20368;-66
2024/01/06 07:24:56;;;;;;;;;;;;;;;;;;5088909;28;20007;-66
2024/01/06 07:27:22;;;;;;;;;;;;;;;;;;5113064;28;19923;-66
2024/01/06 07:29:48;;;;;;;;;;;;;;;;;;5107586;28;19965;-66
2024/01/06 07:32:15;;;;;;;;;;;;;;;;;;5108707;28;19985;-66
2024/01/06 07:34:41;;;;;;;;;;;;;;;;;;5111981;28;19934;-66
2024/01/06 07:37:07;;;;;;;;;;;;;;;;;;5110323;28;20022;-67
2024/01/06 07:39:33;;;;;;;;;;;;;;;;;;5107422;28;20313;-66
2024/01/06 07:41:59;;;;;;;;;;;;;;;;;;5111172;28;19930;-66
2024/01/06 07:44:25;;;;;;;;;;;;;;;;;;5109502;28;20468;-66
2024/01/06 07:46:51;;;;;;;;;;;;;;;;;;5111000;28;19924;-66
2024/01/06 07:49:17;;;;;;;;;;;;;;;;;;5109644;28;20630;-67
2024/01/06 07:51:43;;;;;;;;;;;;;;;;;;5105960;28;20020;-67
2024/01/06 07:54:09;;;;;;;;;;;;;;;;;;5107516;28;20018;-67
2024/01/06 07:56:35;;;;;;;;;;;;;;;;;;5110100;28;20392;-67
2024/01/06 07:59:01;;;;;;;;;;;;;;;;;;5108598;28;19924;-66
2024/01/06 08:01:27;;;;;;;;;;;;;;;;;;5111061;28;19924;-66
2024/01/06 08:03:52;;;;;;;;;;;;;;;;;;5102958;28;19927;-66
2024/01/06 08:06:18;;;;;;;;;;;;;;;;;;5101604;28;19969;-66
2024/01/06 08:08:45;;;;;;;;;;;;;;;;;;5106044;28;19924;-67
2024/01/06 08:11:11;;;;;;;;;;;;;;;;;;5105679;28;19930;-67
2024/01/06 08:13:37;;;;;;;;;;;;;;;;;;5107632;28;19996;-67
2024/01/06 08:16:03;;;;;;;;;;;;;;;;;;5110560;28;19928;-67
2024/01/06 08:18:29;;;;;;;;;;;;;;;;;;5109363;28;19919;-67
2024/01/06 08:20:55;;;;;;;;;;;;;;;;;;5106861;28;20003;-67
2024/01/06 08:23:21;;;;;;;;;;;;;;;;;;5100004;28;20006;-67
2024/01/06 08:25:47;;;;;;;;;;;;;;;;;;5105611;28;20368;-67
2024/01/06 08:28:14;;;;;;;;;;;;;;;;;;5100115;28;19959;-67
2024/01/06 08:30:40;;;;;;;;;;;;;;;;;;5107630;28;19924;-67
2024/01/06 08:33:06;;;;;;;;;;;;;;;;;;5105428;28;19924;-67
2024/01/06 08:35:32;;;;;;;;;;;;;;;;;;5111326;28;19924;-67
2024/01/06 08:37:58;;;;;;;;;;;;;;;;;;5103642;28;19928;-67
2024/01/06 08:40:24;;;;;;;;;;;;;;;;;;5103063;28;19930;-67
2024/01/06 08:42:50;;;;;;;;;;;;;;;;;;5111161;28;19919;-67
2024/01/06 08:45:15;;;;;;;;;;;;;;;;;;5110957;28;20006;-68
2024/01/06 08:47:41;;;;;;;;;;;;;;;;;;5105449;28;20018;-67
2024/01/06 08:50:07;;;;;;;;;;;;;;;;;;5105276;28;20377;-66
2024/01/06 08:52:33;;;;;;;;;;;;;;;;;;5113025;28;20056;-66
2024/01/06 08:54:59;;;;;;;;;;;;;;;;;;5105757;28;19924;-67
2024/01/06 08:57:25;;;;;;;;;;;;;;;;;;5112897;28;19924;-67
2024/01/06 08:59:51;;;;;;;;;;;;;;;;;;5113740;28;19923;-68
2024/01/06 09:02:17;;;;;;;;;;;;;;;;;;5107647;28;19927;-67
2024/01/06 09:04:43;;;;;;;;;;;;;;;;;;5106628;28;19924;-68
2024/01/06 09:07:10;;;;;;;;;;;;;;;;;;5109490;28;20381;-65
2024/01/06 09:09:36;;;;;;;;;;;;;;;;;;5113320;28;19947;-66
2024/01/06 09:12:02;;;;;;;;;;;;;;;;;;5108915;28;19923;-67
2024/01/06 09:14:28;;;;;;;;;;;;;;;;;;5106776;28;19961;-66
2024/01/06 09:16:54;;;;;;;;;;;;;;;;;;5104954;28;19927;-67
2024/01/06 09:19:20;;;;;;;;;;;;;;;;;;5115509;28;19920;-67
2024/01/06 09:21:46;;;;;;;;;;;;;;;;;;5115459;28;19928;-67
2024/01/06 09:24:12;;;;;;;;;;;;;;;;;;5112219;28;20375;-67
2024/01/06 09:26:38;;;;;;;;;;;;;;;;;;5104918;28;19920;-67
2024/01/06 09:29:04;;;;;;;;;;;;;;;;;;5104960;28;19967;-67
2024/01/06 09:31:30;;;;;;;;;;;;;;;;;;5111617;28;19949;-67
2024/01/06 09:33:56;;;;;;;;;;;;;;;;;;5112511;28;20412;-67
2024/01/06 09:36:22;;;;;;;;;;;;;;;;;;5112541;28;19923;-67
2024/01/06 09:38:48;;;;;;;;;;;;;;;;;;5104204;28;20692;-67
2024/01/06 09:41:14;;;;;;;;;;;;;;;;;;5107183;28;19924;-67
2024/01/06 09:43:40;;;;;;;;;;;;;;;;;;5104336;28;20280;-67
2024/01/06 09:46:05;;;;;;;;;;;;;;;;;;5111986;28;19930;-67
2024/01/06 09:48:31;;;;;;;;;;;;;;;;;;5107633;28;19933;-67
2024/01/06 09:50:57;;;;;;;;;;;;;;;;;;5114006;28;19924;-66
2024/01/06 09:53:23;;;;;;;;;;;;;;;;;;5112670;28;19934;-67
2024/01/06 09:55:52;;;;;;;;;;;;;;;;;;5100378;28;19927;-67
2024/01/06 09:58:18;;;;;;;;;;;;;;;;;;5110699;28;20349;-67
2024/01/06 10:00:43;;;;;;;;;;;;;;;;;;5112405;28;20026;-67
2024/01/06 10:03:09;;;;;;;;;;;;;;;;;;5114151;28;20053;-65
2024/01/06 10:05:36;;;;;;;;;;;;;;;;;;5113320;28;19992;-66
2024/01/06 10:08:04;;;;;;;;;;;;;;;;;;5110654;28;19919;-66
2024/01/06 10:10:29;;;;;;;;;;;;;;;;;;5112452;28;19920;-66
2024/01/06 10:12:55;;;;;;;;;;;;;;;;;;5108758;28;20025;-67
2024/01/06 10:15:21;;;;;;;;;;;;;;;;;;5114231;28;20010;-65
2024/01/06 10:17:47;;;;;;;;;;;;;;;;;;5114433;28;20001;-66
2024/01/06 10:20:15;;;;;;;;;;;;;;;;;;5096230;27;19920;-66
2024/01/06 10:22:41;;;;;;;;;;;;;;;;;;5104214;28;19920;-66
2024/01/06 10:25:07;;;;;;;;;;;;;;;;;;5113048;27;19942;-66
2024/01/06 10:27:33;;;;;;;;;;;;;;;;;;5106607;28;20369;-66
2024/01/06 10:29:59;;;;;;;;;;;;;;;;;;5111470;28;19923;-67
2024/01/06 10:32:28;;;;;;;;;;;;;;;;;;5111423;28;19926;-67
2024/01/06 10:34:54;;;;;;;;;;;;;;;;;;5113110;28;19955;-66
2024/01/06 10:37:20;;;;;;;;;;;;;;;;;;5110894;28;19958;-67
2024/01/06 10:39:46;;;;;;;;;;;;;;;;;;5112374;28;20249;-67
2024/01/06 10:42:12;;;;;;;;;;;;;;;;;;5110443;28;19941;-67
2024/01/06 10:44:38;;;;;;;;;;;;;;;;;;5102673;28;19931;-67
2024/01/06 10:47:04;;;;;;;;;;;;;;;;;;5104374;28;19920;-67
2024/01/06 10:49:30;;;;;;;;;;;;;;;;;;5098645;28;19920;-67
2024/01/06 10:51:56;;;;;;;;;;;;;;;;;;5112349;28;19924;-67
2024/01/06 10:54:21;;;;;;;;;;;;;;;;;;5111264;28;19924;-67
2024/01/06 10:56:47;;;;;;;;;;;;;;;;;;5111239;28;19920;-67
2024/01/06 10:59:13;;;;;;;;;;;;;;;;;;5104285;28;19977;-67
2024/01/06 11:01:39;;;;;;;;;;;;;;;;;;5103587;28;20322;-67
2024/01/06 11:04:06;;;;;;;;;;;;;;;;;;5106116;28;19928;-67
2024/01/06 11:06:32;;;;;;;;;;;;;;;;;;5111891;27;19919;-67
2024/01/06 11:08:58;;;;;;;;;;;;;;;;;;5110997;27;19927;-67
2024/01/06 11:11:23;;;;;;;;;;;;;;;;;;5107906;27;20392;-67
2024/01/06 11:13:49;;;;;;;;;;;;;;;;;;5094443;28;19923;-67
2024/01/06 11:16:15;;;;;;;;;;;;;;;;;;5112474;27;19928;-67
2024/01/06 11:18:42;;;;;;;;;;;;;;;;;;5108683;28;19920;-67
2024/01/06 11:21:08;;;;;;;;;;;;;;;;;;5109073;27;19919;-67
2024/01/06 11:23:34;;;;;;;;;;;;;;;;;;5102715;28;19927;-66
2024/01/06 11:26:00;;;;;;;;;;;;;;;;;;5128601;22;20536;-65
2024/01/06 11:28:26;;;;;;;;;;;;;;;;;;5090992;28;20023;-66
2024/01/06 11:30:54;;;;;;;;;;;;;;;;;;5091729;28;20030;-66
2024/01/06 11:33:20;;;;;;;;;;;;;;;;;;5092424;28;19930;-66
2024/01/06 11:35:49;;;;;;;;;;;;;;;;;;5088623;28;20155;-66
2024/01/06 11:38:15;;;;;;;;;;;;;;;;;;5090650;28;19935;-65
2024/01/06 11:40:42;;;;;;;;;;;;;;;;;;5091403;28;19924;-65
2024/01/06 11:43:08;;;;;;;;;;;;;;;;;;5090073;28;19938;-64
2024/01/06 11:45:34;;;;;;;;;;;;;;;;;;5066973;28;19923;-65
2024/01/06 11:48:01;;;;;;;;;;;;;;;;;;5093933;28;20312;-64
2024/01/06 11:50:27;;;;;;;;;;;;;;;;;;5070010;28;19927;-65
2024/01/06 11:52:53;;;;;;;;;;;;;;;;;;5089979;28;19931;-65
2024/01/06 11:55:19;;;;;;;;;;;;;;;;;;5091688;28;19920;-65
2024/01/06 11:57:45;;;;;;;;;;;;;;;;;;5089017;28;19930;-65
2024/01/06 12:00:11;;;;;;;;;;;;;;;;;;5087072;28;19924;-65
2024/01/06 12:02:37;;;;;;;;;;;;;;;;;;5087477;28;20357;-65
2024/01/06 12:05:03;;;;;;;;;;;;;;;;;;5087840;28;20009;-66
2024/01/06 12:07:29;;;;;;;;;;;;;;;;;;5087684;28;19971;-65
2024/01/06 12:09:55;;;;;;;;;;;;;;;;;;5091688;28;20283;-66
2024/01/06 12:12:21;;;;;;;;;;;;;;;;;;5091079;28;19927;-65
2024/01/06 12:14:47;;;;;;;;;;;;;;;;;;5089711;28;20339;-66
2024/01/06 12:17:13;;;;;;;;;;;;;;;;;;5086290;28;19925;-66
2024/01/06 12:19:39;;;;;;;;;;;;;;;;;;5089809;28;19969;-66
2024/01/06 12:22:05;;;;;;;;;;;;;;;;;;5087198;28;19926;-66
2024/01/06 12:24:31;;;;;;;;;;;;;;;;;;5060098;28;20006;-66
2024/01/06 12:26:59;;;;;;;;;;;;;;;;;;5089543;28;19935;-66
2024/01/06 12:29:25;;;;;;;;;;;;;;;;;;5089725;28;20336;-65
2024/01/06 12:31:52;;;;;;;;;;;;;;;;;;5084882;28;19920;-65
2024/01/06 12:34:18;;;;;;;;;;;;;;;;;;5086217;28;19923;-66
2024/01/06 12:36:46;;;;;;;;;;;;;;;;;;5081181;28;19928;-65
2024/01/06 12:39:16;;;;;;;;;;;;;;;;;;5084222;28;19924;-65
2024/01/06 12:41:42;;;;;;;;;;;;;;;;;;5085902;28;19926;-65
2024/01/06 12:44:08;;;;;;;;;;;;;;;;;;5086365;28;19924;-65
2024/01/06 12:46:34;;;;;;;;;;;;;;;;;;5083479;28;19927;-65
2024/01/06 12:49:00;;;;;;;;;;;;;;;;;;5087934;28;20281;-65
2024/01/06 12:51:26;;;;;;;;;;;;;;;;;;5085669;28;19928;-65
2024/01/06 12:53:52;;;;;;;;;;;;;;;;;;5086566;28;19924;-65
2024/01/06 12:56:18;;;;;;;;;;;;;;;;;;5087169;28;19920;-65
2024/01/06 12:58:43;;;;;;;;;;;;;;;;;;5086375;28;20383;-66
2024/01/06 13:01:09;;;;;;;;;;;;;;;;;;5084895;28;19920;-66
2024/01/06 13:03:35;;;;;;;;;;;;;;;;;;5087870;28;20011;-65
2024/01/06 13:06:01;;;;;;;;;;;;;;;;;;5087147;28;19920;-66
2024/01/06 13:08:27;;;;;;;;;;;;;;;;;;5086521;28;19920;-66
2024/01/06 13:10:53;;;;;;;;;;;;;;;;;;5087932;28;20502;-66
2024/01/06 13:13:19;;;;;;;;;;;;;;;;;;5085763;28;19932;-66
2024/01/06 13:15:48;;;;;;;;;;;;;;;;;;5088674;28;19920;-66
2024/01/06 13:18:16;;;;;;;;;;;;;;;;;;5085667;28;20024;-68
2024/01/06 13:20:43;;;;;;;;;;;;;;;;;;5090034;28;19935;-67
2024/01/06 13:23:09;;;;;;;;;;;;;;;;;;5088918;28;20487;-68
2024/01/06 13:25:35;;;;;;;;;;;;;;;;;;5087178;28;19955;-68
2024/01/06 13:28:01;;;;;;;;;;;;;;;;;;5087285;28;19959;-69
2024/01/06 13:30:27;;;;;;;;;;;;;;;;;;5087774;28;19971;-68
2024/01/06 13:32:54;;;;;;;;;;;;;;;;;;5089632;28;19927;-68
2024/01/06 13:35:20;;;;;;;;;;;;;;;;;;5092830;28;20358;-67
2024/01/06 13:37:48;;;;;;;;;;;;;;;;;;5094319;28;19928;-68
2024/01/06 13:40:14;;;;;;;;;;;;;;;;;;5091223;28;19924;-68
2024/01/06 13:42:39;;;;;;;;;;;;;;;;;;5066913;28;20024;-68
2024/01/06 13:45:05;;;;;;;;;;;;;;;;;;5091478;28;19920;-68
2024/01/06 13:47:32;;;;;;;;;;;;;;;;;;5092825;28;19931;-68
2024/01/06 13:49:58;;;;;;;;;;;;;;;;;;5094061;28;19924;-68
2024/01/06 13:52:24;;;;;;;;;;;;;;;;;;5076320;28;19991;-67
2024/01/06 13:54:50;;;;;;;;;;;;;;;;;;5075959;28;20050;-68
2024/01/06 13:57:16;;;;;;;;;;;;;;;;;;5088797;28;20019;-67
2024/01/06 13:59:42;;;;;;;;;;;;;;;;;;5093742;28;19991;-68
2024/01/06 14:02:08;;;;;;;;;;;;;;;;;;5093391;28;19920;-68
2024/01/06 14:04:34;;;;;;;;;;;;;;;;;;5089925;28;19920;-68
2024/01/06 14:07:01;;;;;;;;;;;;;;;;;;5093364;28;19924;-68
2024/01/06 14:09:27;;;;;;;;;;;;;;;;;;5093723;28;19969;-68
2024/01/06 14:11:54;;;;;;;;;;;;;;;;;;5091805;28;19923;-68
2024/01/06 14:14:20;;;;;;;;;;;;;;;;;;5088505;28;19959;-67
2024/01/06 14:16:46;;;;;;;;;;;;;;;;;;5092410;28;20528;-67
2024/01/06 14:19:12;;;;;;;;;;;;;;;;;;5093792;28;20011;-68
2024/01/06 14:21:38;;;;;;;;;;;;;;;;;;5093440;28;20003;-68
2024/01/06 14:24:05;;;;;;;;;;;;;;;;;;5092039;28;19927;-69
2024/01/06 14:26:31;;;;;;;;;;;;;;;;;;5092136;28;19919;-69
2024/01/06 14:28:58;;;;;;;;;;;;;;;;;;5088884;28;20003;-69
2024/01/06 14:31:24;;;;;;;;;;;;;;;;;;5092735;28;19923;-69
2024/01/06 14:33:50;;;;;;;;;;;;;;;;;;5091268;28;20047;-68
2024/01/06 14:36:16;;;;;;;;;;;;;;;;;;5091180;28;20663;-68
2024/01/06 14:38:42;;;;;;;;;;;;;;;;;;5092706;28;19978;-67
2024/01/06 14:41:08;;;;;;;;;;;;;;;;;;5089489;28;19926;-67
2024/01/06 14:43:34;;;;;;;;;;;;;;;;;;5088009;28;19920;-68
2024/01/06 14:45:59;;;;;;;;;;;;;;;;;;5089734;28;19920;-67
2024/01/06 14:48:25;;;;;;;;;;;;;;;;;;5092793;28;20456;-67
2024/01/06 14:50:51;;;;;;;;;;;;;;;;;;5089816;28;19920;-68
2024/01/06 14:53:17;;;;;;;;;;;;;;;;;;5090492;28;19925;-67
2024/01/06 14:55:43;;;;;;;;;;;;;;;;;;5090188;28;20015;-68
2024/01/06 14:58:09;;;;;;;;;;;;;;;;;;5082109;28;19935;-68
2024/01/06 15:00:35;;;;;;;;;;;;;;;;;;5090735;28;20011;-69
2024/01/06 15:03:01;;;;;;;;;;;;;;;;;;5089100;28;19920;-68
2024/01/06 15:05:30;;;;;;;;;;;;;;;;;;5085554;28;20108;-68
2024/01/06 15:07:56;;;;;;;;;;;;;;;;;;5088297;28;19947;-69
2024/01/06 15:10:21;;;;;;;;;;;;;;;;;;5088103;28;19939;-67
2024/01/06 15:12:48;;;;;;;;;;;;;;;;;;5080287;28;19921;-68
2024/01/06 15:15:13;;;;;;;;;;;;;;;;;;5076117;28;20011;-68
2024/01/06 15:17:39;;;;;;;;;;;;;;;;;;5085512;28;19928;-69
2024/01/06 15:20:05;;;;;;;;;;;;;;;;;;5087028;28;19931;-68
2024/01/06 15:22:31;;;;;;;;;;;;;;;;;;5088574;28;19931;-68
2024/01/06 15:24:57;;;;;;;;;;;;;;;;;;5090251;28;19927;-68
2024/01/06 15:27:23;;;;;;;;;;;;;;;;;;5078711;28;20301;-68
2024/01/06 15:29:49;;;;;;;;;;;;;;;;;;5088129;28;19965;-68
2024/01/06 15:32:15;;;;;;;;;;;;;;;;;;5068414;28;20014;-68
2024/01/06 15:34:41;;;;;;;;;;;;;;;;;;5087709;28;20729;-68
2024/01/06 15:37:07;;;;;;;;;;;;;;;;;;5085014;28;19984;-68
2024/01/06 15:39:32;;;;;;;;;;;;;;;;;;5068071;28;19923;-68
2024/01/06 15:41:59;;;;;;;;;;;;;;;;;;5086042;28;19924;-67
2024/01/06 15:44:25;;;;;;;;;;;;;;;;;;5087842;28;19931;-68
2024/01/06 15:46:51;;;;;;;;;;;;;;;;;;5081760;28;19923;-67
2024/01/06 15:49:18;;;;;;;;;;;;;;;;;;5085232;28;19930;-69
2024/01/06 15:51:44;;;;;;;;;;;;;;;;;;5085442;28;19946;-67
2024/01/06 15:54:10;;;;;;;;;;;;;;;;;;5087226;28;20412;-68
2024/01/06 15:56:36;;;;;;;;;;;;;;;;;;5082276;28;20281;-68
2024/01/06 15:59:02;;;;;;;;;;;;;;;;;;5082669;28;19928;-67
2024/01/06 16:01:28;;;;;;;;;;;;;;;;;;5082632;28;19920;-67
2024/01/06 16:03:54;;;;;;;;;;;;;;;;;;5086951;28;19924;-67
2024/01/06 16:06:20;;;;;;;;;;;;;;;;;;5086018;28;19924;-69
2024/01/06 16:08:46;;;;;;;;;;;;;;;;;;5085652;28;19973;-68
2024/01/06 16:11:11;;;;;;;;;;;;;;;;;;5087448;28;19931;-68
2024/01/06 16:13:37;;;;;;;;;;;;;;;;;;5089253;28;19930;-68
2024/01/06 16:16:03;;;;;;;;;;;;;;;;;;5086975;28;19924;-68
2024/01/06 16:18:29;;;;;;;;;;;;;;;;;;5084254;28;20327;-68
2024/01/06 16:20:57;;;;;;;;;;;;;;;;;;5084782;28;19927;-69
2024/01/06 16:23:24;;;;;;;;;;;;;;;;;;5088706;28;19924;-68
2024/01/06 16:25:50;;;;;;;;;;;;;;;;;;5087507;28;19924;-68
2024/01/06 16:28:16;;;;;;;;;;;;;;;;;;5088196;28;19938;-67
2024/01/06 16:30:42;;;;;;;;;;;;;;;;;;5085398;28;20050;-68
2024/01/06 16:33:08;;;;;;;;;;;;;;;;;;5083300;28;20334;-68
2024/01/06 16:35:34;;;;;;;;;;;;;;;;;;5089169;28;19924;-68
2024/01/06 16:38:01;;;;;;;;;;;;;;;;;;5087926;28;19928;-67